Aérodrome d'Andernos

LFCD · Nouvelle-Aquitaine, França

7 de outubro de 2022

Hora Código Clima Temp. Visibilidade Tecto Vento METAR/SPECI
14:00
V
24 °C 10 km+ - 110° 110° 4 kt METAR LFBC 071200Z AUTO 11004KT 030V180 CAVOK 24/15 Q1022 NOSIG
13:30
V
23 °C 10 km+ - Var Var 2 kt METAR LFBC 071130Z AUTO VRB02KT CAVOK 23/15 Q1022 NOSIG
13:00
V
22 °C 10 km+ - 110° 110° 4 kt METAR LFBC 071100Z AUTO 11004KT 050V160 CAVOK 22/15 Q1022 NOSIG
12:30
V
22 °C 10 km+ - 110° 110° 8 kt METAR LFBC 071030Z AUTO 11008KT CAVOK 22/15 Q1023 NOSIG
12:00
V
21 °C 10 km+ - 130° 130° 8 kt METAR LFBC 071000Z AUTO 13008KT CAVOK 21/15 Q1023 NOSIG
11:30
V
20 °C 10 km+ - 140° 140° 7 kt METAR LFBC 070930Z AUTO 14007KT CAVOK 20/15 Q1023 NOSIG
11:00
V
19 °C 10 km+ - 120° 120° 4 kt METAR LFBC 070900Z AUTO 12004KT 080V160 CAVOK 19/15 Q1023 NOSIG
10:30
V
17 °C 10 km+ - 100° 100° 4 kt METAR LFBC 070830Z AUTO 10004KT CAVOK 17/15 Q1023 NOSIG
10:00
V
15 °C 10 km+ - 100° 100° 4 kt METAR LFBC 070800Z AUTO 10004KT CAVOK 15/15 Q1023 NOSIG
09:30
V
14 °C 10 km+ - 080° 080° 3 kt METAR LFBC 070730Z AUTO 08003KT CAVOK 14/14 Q1023 NOSIG
09:00
V
13 °C 10 km+ - 060° 060° 3 kt METAR LFBC 070700Z AUTO 06003KT CAVOK 13/13 Q1023 NOSIG
08:30
V
12 °C 10 km+ - 060° 060° 2 kt METAR LFBC 070630Z AUTO 06002KT CAVOK 12/12 Q1023 NOSIG
08:00
V
12 °C 9 km - 050° 050° 2 kt METAR LFBC 070600Z AUTO 05002KT 9000 NSC 12/11 Q1023 TEMPO 3000 BR
07:30
I
11 °C 3,6 km - Var 000° 0 kt METAR LFBC 070530Z AUTO 00000KT 3600 BR NSC 11/11 Q1023 BECMG 9999 NSW
07:00
I
12 °C 1,8 km - Var 000° 0 kt METAR LFBC 070500Z AUTO 00000KT 9999 1800 NSC 12/11 Q1023 TEMPO 3000 BR
06:30
V
12 °C 10 km+ - Var 000° 0 kt METAR LFBC 070430Z AUTO 00000KT CAVOK 12/11 Q1023 TEMPO 3000 BR
06:00
I
12 °C 2,1 km - 010° 010° 2 kt METAR LFBC 070400Z AUTO 01002KT 7000 2100 NSC 12/12 Q1023 TEMPO 3000 BR
05:30
V
12 °C 9 km - 030° 030° 3 kt METAR LFBC 070330Z AUTO 03003KT 9000 NSC 12/12 Q1024 TEMPO 3000 BR
05:00
V
12 °C 8 km - 010° 010° 3 kt METAR LFBC 070300Z AUTO 01003KT 8000 NSC 12/12 Q1024 TEMPO 3000 BR
04:30
V
13 °C 8 km - 010° 010° 3 kt METAR LFBC 070230Z AUTO 01003KT 8000 NSC 13/12 Q1024 TEMPO 3000 BR
04:00
V
13 °C 10 km+ - 020° 020° 3 kt METAR LFBC 070200Z AUTO 02003KT CAVOK 13/13 Q1024 TEMPO 3000 BR
03:30
V
13 °C 10 km+ - 020° 020° 4 kt METAR LFBC 070130Z AUTO 02004KT CAVOK 13/12 Q1025 TEMPO 3000 BR
03:00
V
13 °C 10 km+ - 010° 010° 3 kt METAR LFBC 070100Z AUTO 01003KT CAVOK 13/13 Q1025 NOSIG
02:30
V
13 °C 10 km+ - 360° 360° 3 kt METAR LFBC 070030Z AUTO 36003KT CAVOK 13/13 Q1025 NOSIG
02:00
V
13 °C 10 km+ - 360° 360° 3 kt METAR LFBC 070000Z AUTO 36003KT CAVOK 13/13 Q1025 NOSIG
01:30
V
14 °C 10 km+ - 010° 010° 3 kt METAR LFBC 062330Z AUTO 01003KT CAVOK 14/13 Q1026 NOSIG
01:00
V
14 °C 10 km+ - 360° 360° 3 kt METAR LFBC 062300Z AUTO 36003KT CAVOK 14/13 Q1026 NOSIG
00:30
V
14 °C 10 km+ - 010° 010° 2 kt METAR LFBC 062230Z AUTO 01002KT CAVOK 14/13 Q1026 NOSIG
00:00
V
14 °C 10 km+ - 360° 360° 3 kt METAR LFBC 062200Z AUTO 36003KT CAVOK 14/14 Q1026 NOSIG

6 de outubro de 2022

Hora Código Clima Temp. Visibilidade Tecto Vento METAR/SPECI
23:30
V
15 °C 10 km+ - 010° 010° 3 kt METAR LFBC 062130Z AUTO 01003KT CAVOK 15/14 Q1027 NOSIG
23:00
V
15 °C 10 km+ - 010° 010° 3 kt METAR LFBC 062100Z AUTO 01003KT CAVOK 15/14 Q1027 NOSIG
22:30
V
16 °C 10 km+ - 020° 020° 2 kt METAR LFBC 062030Z AUTO 02002KT 9999 SCT029 16/14 Q1027 NOSIG
22:00
V
17 °C 10 km+ - 040° 040° 3 kt METAR LFBC 062000Z AUTO 04003KT CAVOK 17/15 Q1027 NOSIG
21:30
V
17 °C 10 km+ - 040° 040° 2 kt METAR LFBC 061930Z AUTO 04002KT CAVOK 17/15 Q1027 NOSIG
21:00
V
18 °C 10 km+ - 040° 040° 4 kt METAR LFBC 061900Z AUTO 04004KT CAVOK 18/15 Q1027 NOSIG
20:30
V
19 °C 10 km+ 21.000 ft 050° 050° 5 kt METAR LFBC 061830Z AUTO 05005KT 9999 SCT032 BKN210 19/15 Q1027 NOSIG
20:00
V
19 °C 10 km+ 3.500 ft 030° 030° 4 kt METAR LFBC 061800Z AUTO 03004KT 9999 BKN035 BKN220 19/15 Q1027 NOSIG
19:30
V
20 °C 10 km+ 3.600 ft 030° 030° 3 kt METAR LFBC 061730Z AUTO 03003KT 9999 BKN036 20/15 Q1027 NOSIG
19:00
V
20 °C 10 km+ - 030° 030° 4 kt METAR LFBC 061700Z AUTO 03004KT 9999 FEW035 20/15 Q1027 NOSIG
18:30
V
20 °C 10 km+ 3.500 ft 030° 030° 5 kt METAR LFBC 061630Z AUTO 03005KT 9999 OVC035 20/16 Q1027 NOSIG
18:00
V
20 °C 10 km+ 3.300 ft 050° 050° 5 kt METAR LFBC 061600Z AUTO 05005KT 9999 FEW026 BKN033 20/15 Q1027 NOSIG
17:30
M
20 °C 10 km+ 2.500 ft 040° 040° 5 kt METAR LFBC 061530Z AUTO 04005KT 9999 FEW018 BKN025 OVC032 20/16 Q1028 NOSIG
17:00
V
21 °C 10 km+ 3.200 ft 020° 020° 5 kt METAR LFBC 061500Z AUTO 02005KT 350V070 9999 FEW018 BKN032 21/16 Q1028 NOSIG
16:30
M
21 °C 10 km+ 2.600 ft 050° 050° 5 kt METAR LFBC 061430Z AUTO 05005KT 360V080 9999 SCT019 BKN026 OVC032 21/16 Q1028 NOSIG
16:00
M
21 °C 10 km+ 2.000 ft Var Var 3 kt METAR LFBC 061400Z AUTO VRB03KT 9999 BKN020 BKN220 21/16 Q1028 NOSIG
15:30
M
21 °C 10 km+ 2.500 ft Var Var 3 kt METAR LFBC 061330Z AUTO VRB03KT 9999 OVC025 21/16 Q1028 NOSIG
15:00
M
20 °C 10 km+ 2.400 ft 070° 070° 3 kt METAR LFBC 061300Z AUTO 07003KT 030V130 9999 OVC024 20/16 Q1029 NOSIG
14:30
M
19 °C 10 km+ 2.200 ft 050° 050° 5 kt METAR LFBC 061230Z AUTO 05005KT 9999 FEW009 OVC022 19/16 Q1029 NOSIG
14:00
M
18 °C 10 km+ 1.100 ft 090° 090° 4 kt METAR LFBC 061200Z AUTO 09004KT 9999 BKN011 OVC022 18/16 Q1030 BECMG SCT012 SCT030
13:30
M
18 °C 10 km+ 1.000 ft 050° 050° 4 kt METAR LFBC 061130Z AUTO 05004KT 010V100 9999 OVC010 18/16 Q1030 BECMG SCT012 SCT030
13:00
I
17 °C 10 km+ 800 ft 040° 040° 4 kt METAR LFBC 061100Z AUTO 04004KT 020V080 9999 OVC008 17/15 Q1030 BECMG SCT012 SCT030
12:30
I
17 °C 10 km+ 700 ft 040° 040° 6 kt METAR LFBC 061030Z AUTO 04006KT 9999 OVC007 17/15 Q1030 BECMG SCT012 SCT030
12:00
I
16 °C 10 km+ 700 ft 060° 060° 6 kt METAR LFBC 061000Z AUTO 06006KT 020V090 9999 OVC007 16/15 Q1030 BECMG SCT012 SCT030
11:30
I
16 °C 10 km+ 600 ft 050° 050° 5 kt METAR LFBC 060930Z AUTO 05005KT 010V090 9999 OVC006 16/15 Q1030 BECMG SCT012 SCT030
11:00
I
15 °C 9 km 700 ft 040° 040° 6 kt METAR LFBC 060900Z AUTO 04006KT 010V070 9000 OVC007 15/14 Q1030 BECMG SCT012 SCT030
10:30
I
15 °C 10 km+ 700 ft 030° 030° 8 kt METAR LFBC 060830Z AUTO 03008KT 9999 BKN007 OVC011 15/14 Q1030 BECMG SCT012 SCT030
10:00
I
15 °C 10 km+ 600 ft 040° 040° 8 kt METAR LFBC 060800Z AUTO 04008KT 9999 OVC006 15/14 Q1030 TEMPO 4000 -DZRA
09:30
I
16 °C 10 km+ 500 ft 020° 020° 7 kt METAR LFBC 060730Z AUTO 02007KT 9999 OVC005 16/15 Q1030 TEMPO 4000 -DZRA
09:00
I
16 °C 10 km+ 500 ft 020° 020° 7 kt METAR LFBC 060700Z AUTO 02007KT 9999 OVC005 16/15 Q1029 TEMPO 4000 -DZRA
08:30
I
16 °C 10 km+ 700 ft 040° 040° 4 kt METAR LFBC 060630Z AUTO 04004KT 9999 OVC007 16/16 Q1029 TEMPO 4000 -DZRA
08:00
I
16 °C 10 km+ 800 ft 030° 030° 5 kt METAR LFBC 060600Z AUTO 03005KT 9999 BKN008 OVC032 16/16 Q1029 TEMPO 4000 -DZRA
07:30
I
17 °C 10 km+ 800 ft 040° 040° 5 kt METAR LFBC 060530Z AUTO 04005KT 9999 BKN008 BKN018 OVC034 17/16 Q1029 TEMPO 4000 -DZRA
07:00
V
17 °C 10 km+ 3.600 ft 020° 020° 5 kt METAR LFBC 060500Z AUTO 02005KT 9999 SCT006 OVC036 17/16 Q1029 TEMPO 4000 -DZRA BKN006 BKN015
06:30
V
17 °C 10 km+ 3.500 ft 010° 010° 5 kt METAR LFBC 060430Z AUTO 01005KT 9999 FEW007 OVC035 17/16 Q1029 TEMPO 4000 -DZRA BKN006 BKN015
06:00
I
17 °C 10 km+ 600 ft 010° 010° 6 kt METAR LFBC 060400Z AUTO 01006KT 330V030 9999 BKN006 OVC025 17/16 Q1029 TEMPO 4000 -DZRA
05:30
I
17 °C 10 km+ 500 ft 350° 350° 5 kt METAR LFBC 060330Z AUTO 35005KT 9999 OVC005 17/17 Q1028 TEMPO 4000 -DZRA
05:00
I
17 °C 10 km+ 600 ft 360° 360° 4 kt METAR LFBC 060300Z AUTO 36004KT 9999 BKN006 BKN014 BKN023 17/17 Q1028 TEMPO 4000 -DZRA
04:30
I
18 °C 10 km+ 600 ft 340° 340° 4 kt METAR LFBC 060230Z AUTO 34004KT 9999 BKN006 BKN026 OVC032 18/17 Q1028 TEMPO 4000 -DZRA
04:00
M
18 °C 6 km 1.400 ft Var 000° 0 kt METAR LFBC 060200Z AUTO 00000KT 6000 FEW007 BKN014 BKN020 18/17 Q1029 TEMPO 4000 -DZRA BKN006 BKN015
03:30
I
18 °C 3,2 km 2.000 ft Var Var 1 kt METAR LFBC 060130Z AUTO VRB01KT 3200 -RA BR FEW008 SCT012 BKN020 18/17 Q1029 TEMPO BKN006 BKN015
03:00
M
18 °C 10 km+ 2.100 ft 210° 210° 3 kt METAR LFBC 060100Z AUTO 21003KT 9999 SCT013/// OVC021/// //////TCU 18/17 Q1029 TEMPO 4000 -DZRA BKN006 BKN015
02:30
M
19 °C 10 km+ 2.300 ft 250° 250° 3 kt METAR LFBC 060030Z AUTO 25003KT 9999 OVC023 19/17 Q1029 TEMPO 4000 -DZRA BKN006 BKN015
02:00
M
18 °C 10 km+ 2.500 ft 260° 260° 3 kt METAR LFBC 060000Z AUTO 26003KT 9999 BKN025 OVC031 18/17 Q1028 TEMPO 4000 -DZRA BKN006 BKN015
01:30
M
18 °C 10 km+ 2.500 ft 250° 250° 3 kt METAR LFBC 052330Z AUTO 25003KT 9999 BKN025 OVC030 18/17 Q1028 TEMPO 4000 -DZRA BKN006 BKN015
01:00
M
18 °C 10 km+ 2.600 ft 270° 270° 3 kt METAR LFBC 052300Z AUTO 27003KT 9999 OVC026 18/17 Q1028 TEMPO 4000 -DZRA BKN006 BKN015
00:30
M
18 °C 10 km+ 2.700 ft 230° 230° 3 kt METAR LFBC 052230Z AUTO 23003KT 9999 OVC027 18/16 Q1028 TEMPO 4000 -DZRA BKN006 BKN015
00:00
M
18 °C 10 km+ 2.600 ft 240° 240° 3 kt METAR LFBC 052200Z AUTO 24003KT 9999 OVC026 18/16 Q1028 TEMPO 4000 -DZRA BKN006 BKN015

5 de outubro de 2022

Hora Código Clima Temp. Visibilidade Tecto Vento METAR/SPECI
23:30
M
18 °C 10 km+ 2.200 ft Var Var 2 kt METAR LFBC 052130Z AUTO VRB02KT 9999 OVC022 18/16 Q1028 TEMPO 4000 -DZRA BKN006 BKN015
23:00
M
17 °C 10 km+ 2.200 ft 250° 250° 3 kt METAR LFBC 052100Z AUTO 25003KT 9999 OVC022 17/16 Q1027 NOSIG
22:30
V
17 °C 10 km+ - 270° 270° 3 kt METAR LFBC 052030Z AUTO 27003KT 9999 SCT021 SCT029 17/15 Q1027 NOSIG
22:00
V
17 °C 10 km+ 3.000 ft 250° 250° 2 kt METAR LFBC 052000Z AUTO 25002KT 9999 BKN030 17/15 Q1027 NOSIG
21:30
M
18 °C 10 km+ 2.700 ft Var Var 3 kt METAR LFBC 051930Z AUTO VRB03KT 9999 OVC027 18/15 Q1026 NOSIG
21:00
M
18 °C 10 km+ 2.700 ft 280° 280° 2 kt METAR LFBC 051900Z AUTO 28002KT 9999 OVC027 18/15 Q1026 NOSIG
20:30
M
18 °C 10 km+ 2.600 ft Var Var 3 kt METAR LFBC 051830Z AUTO VRB03KT 9999 OVC026 18/15 Q1025 NOSIG
20:00
M
18 °C 10 km+ 2.400 ft Var Var 3 kt METAR LFBC 051800Z AUTO VRB03KT 9999 OVC024 18/14 Q1025 TEMPO BKN008
19:30
M
18 °C 10 km+ 2.100 ft 320° 320° 4 kt METAR LFBC 051730Z AUTO 32004KT 290V350 9999 OVC021 18/14 Q1024 TEMPO BKN008
19:00
M
18 °C 10 km+ 1.700 ft 330° 330° 8 kt METAR LFBC 051700Z AUTO 33008KT 9999 OVC017 18/14 Q1024 TEMPO BKN008
18:30
M
19 °C 10 km+ 1.600 ft 300° 300° 6 kt METAR LFBC 051630Z AUTO 30006KT 270V340 9999 OVC016 19/15 Q1023 TEMPO BKN008
18:00
M
19 °C 10 km+ 1.600 ft 300° 300° 6 kt METAR LFBC 051600Z AUTO 30006KT 270V350 9999 BKN016 19/15 Q1023 TEMPO BKN008
17:30
M
19 °C 10 km+ 1.600 ft 310° 310° 9 kt METAR LFBC 051530Z AUTO 31009KT 280V340 9999 BKN016 19/15 Q1023 TEMPO BKN008
17:00
V
19 °C 10 km+ - 320° 320° 8 kt METAR LFBC 051500Z AUTO 32008KT 280V350 9999 SCT014 19/15 Q1022 TEMPO BKN008
16:30
V
20 °C 10 km+ - 310° 310° 9 kt METAR LFBC 051430Z AUTO 31009KT 290V350 9999 FEW014 20/15 Q1022 TEMPO BKN008
16:00
V
21 °C 10 km+ - 310° 310° 7 kt METAR LFBC 051400Z AUTO 31007KT 270V330 CAVOK 21/15 Q1022 NOSIG
15:30
V
20 °C 10 km+ - 310° 310° 8 kt METAR LFBC 051330Z AUTO 31008KT 280V350 CAVOK 20/15 Q1021 NOSIG
15:00
V
21 °C 10 km+ - 290° 290° 8 kt METAR LFBC 051300Z AUTO 29008KT 260V340 CAVOK 21/15 Q1022 NOSIG
Dados mais antigos

Nós e terceiros acompanhamos seu comportamento na internet em nosso site com cookies. Se você continuar, nós assumimos que você concorda com nossa política de cookies. Saiba mais